sensor_id;sensor_type;location;lat;lon;timestamp;P1;durP1;ratioP1;P2;durP2;ratioP2
16954;SDS011;8594;52.052;8.354;2023-02-17T00:00:16;62.97;;;33.23;;
16954;SDS011;8594;52.052;8.354;2023-02-17T00:02:44;60.57;;;33.17;;
16954;SDS011;8594;52.052;8.354;2023-02-17T00:05:11;60.77;;;33.73;;
16954;SDS011;8594;52.052;8.354;2023-02-17T00:07:38;61.93;;;34.47;;
16954;SDS011;8594;52.052;8.354;2023-02-17T00:10:05;64.23;;;34.33;;
16954;SDS011;8594;52.052;8.354;2023-02-17T00:12:33;62.37;;;34.07;;
16954;SDS011;8594;52.052;8.354;2023-02-17T00:15:03;58.80;;;33.53;;
16954;SDS011;8594;52.052;8.354;2023-02-17T00:17:30;60.60;;;34.37;;
16954;SDS011;8594;52.052;8.354;2023-02-17T00:19:57;59.90;;;33.70;;
16954;SDS011;8594;52.052;8.354;2023-02-17T00:22:24;57.87;;;33.13;;
16954;SDS011;8594;52.052;8.354;2023-02-17T00:24:51;58.13;;;32.37;;
16954;SDS011;8594;52.052;8.354;2023-02-17T00:27:18;56.43;;;33.73;;
16954;SDS011;8594;52.052;8.354;2023-02-17T00:29:45;59.87;;;33.47;;
16954;SDS011;8594;52.052;8.354;2023-02-17T00:32:13;61.10;;;34.80;;
16954;SDS011;8594;52.052;8.354;2023-02-17T00:34:40;59.40;;;32.87;;
16954;SDS011;8594;52.052;8.354;2023-02-17T00:37:07;67.33;;;35.47;;
16954;SDS011;8594;52.052;8.354;2023-02-17T00:39:33;61.67;;;34.60;;
16954;SDS011;8594;52.052;8.354;2023-02-17T00:42:00;58.57;;;33.40;;
16954;SDS011;8594;52.052;8.354;2023-02-17T00:44:27;66.33;;;34.90;;
16954;SDS011;8594;52.052;8.354;2023-02-17T00:46:54;63.20;;;34.73;;
16954;SDS011;8594;52.052;8.354;2023-02-17T00:49:23;62.33;;;34.03;;
16954;SDS011;8594;52.052;8.354;2023-02-17T00:51:51;64.80;;;35.37;;
16954;SDS011;8594;52.052;8.354;2023-02-17T00:54:18;65.77;;;34.80;;
16954;SDS011;8594;52.052;8.354;2023-02-17T00:56:46;63.90;;;34.83;;
16954;SDS011;8594;52.052;8.354;2023-02-17T00:59:13;66.57;;;35.63;;
16954;SDS011;8594;52.052;8.354;2023-02-17T01:01:40;64.27;;;35.03;;
16954;SDS011;8594;52.052;8.354;2023-02-17T01:04:07;63.17;;;35.67;;
16954;SDS011;8594;52.052;8.354;2023-02-17T01:06:36;65.97;;;35.20;;
16954;SDS011;8594;52.052;8.354;2023-02-17T01:09:05;62.73;;;34.83;;
16954;SDS011;8594;52.052;8.354;2023-02-17T01:11:37;57.43;;;32.90;;
16954;SDS011;8594;52.052;8.354;2023-02-17T01:14:07;59.23;;;34.20;;
16954;SDS011;8594;52.052;8.354;2023-02-17T01:16:35;62.10;;;35.20;;
16954;SDS011;8594;52.052;8.354;2023-02-17T01:19:04;65.07;;;35.93;;
16954;SDS011;8594;52.052;8.354;2023-02-17T01:21:35;62.13;;;35.20;;
16954;SDS011;8594;52.052;8.354;2023-02-17T01:24:03;60.23;;;33.60;;
16954;SDS011;8594;52.052;8.354;2023-02-17T01:26:33;61.97;;;33.73;;
16954;SDS011;8594;52.052;8.354;2023-02-17T01:29:03;59.40;;;33.67;;
16954;SDS011;8594;52.052;8.354;2023-02-17T01:31:31;63.10;;;35.53;;
16954;SDS011;8594;52.052;8.354;2023-02-17T01:33:59;65.97;;;35.37;;
16954;SDS011;8594;52.052;8.354;2023-02-17T01:36:29;60.30;;;34.00;;
16954;SDS011;8594;52.052;8.354;2023-02-17T01:38:57;61.63;;;35.17;;
16954;SDS011;8594;52.052;8.354;2023-02-17T01:41:25;63.37;;;34.90;;
16954;SDS011;8594;52.052;8.354;2023-02-17T01:44:10;63.40;;;35.20;;
16954;SDS011;8594;52.052;8.354;2023-02-17T01:46:41;65.20;;;36.50;;
16954;SDS011;8594;52.052;8.354;2023-02-17T01:52:03;71.30;;;35.80;;
16954;SDS011;8594;52.052;8.354;2023-02-17T01:54:38;63.90;;;36.30;;
16954;SDS011;8594;52.052;8.354;2023-02-17T01:57:10;62.53;;;35.53;;
16954;SDS011;8594;52.052;8.354;2023-02-17T01:59:41;65.03;;;35.87;;
16954;SDS011;8594;52.052;8.354;2023-02-17T02:02:09;61.70;;;34.13;;
16954;SDS011;8594;52.052;8.354;2023-02-17T02:04:38;62.63;;;35.37;;
16954;SDS011;8594;52.052;8.354;2023-02-17T02:07:10;58.47;;;32.90;;
16954;SDS011;8594;52.052;8.354;2023-02-17T02:09:46;64.13;;;35.23;;
16954;SDS011;8594;52.052;8.354;2023-02-17T02:12:19;64.33;;;36.40;;
16954;SDS011;8594;52.052;8.354;2023-02-17T02:14:49;60.23;;;34.03;;
16954;SDS011;8594;52.052;8.354;2023-02-17T02:17:20;57.50;;;32.83;;
16954;SDS011;8594;52.052;8.354;2023-02-17T02:20:13;57.03;;;32.97;;
16954;SDS011;8594;52.052;8.354;2023-02-17T02:23:44;54.43;;;32.60;;
16954;SDS011;8594;52.052;8.354;2023-02-17T02:26:41;58.83;;;33.27;;
16954;SDS011;8594;52.052;8.354;2023-02-17T02:29:39;60.73;;;31.63;;
16954;SDS011;8594;52.052;8.354;2023-02-17T02:32:47;56.50;;;31.23;;
16954;SDS011;8594;52.052;8.354;2023-02-17T02:35:33;55.67;;;31.77;;
16954;SDS011;8594;52.052;8.354;2023-02-17T02:38:12;54.60;;;31.30;;
16954;SDS011;8594;52.052;8.354;2023-02-17T02:40:46;55.70;;;31.47;;
16954;SDS011;8594;52.052;8.354;2023-02-17T02:43:23;54.90;;;30.67;;
16954;SDS011;8594;52.052;8.354;2023-02-17T02:45:51;56.57;;;31.77;;
16954;SDS011;8594;52.052;8.354;2023-02-17T02:48:19;56.30;;;30.53;;
16954;SDS011;8594;52.052;8.354;2023-02-17T02:51:01;56.67;;;31.90;;
16954;SDS011;8594;52.052;8.354;2023-02-17T02:56:48;55.87;;;30.27;;
16954;SDS011;8594;52.052;8.354;2023-02-17T02:59:33;57.27;;;30.83;;
16954;SDS011;8594;52.052;8.354;2023-02-17T03:02:15;51.57;;;29.03;;
16954;SDS011;8594;52.052;8.354;2023-02-17T03:04:56;50.30;;;29.77;;
16954;SDS011;8594;52.052;8.354;2023-02-17T03:07:33;52.00;;;30.40;;
16954;SDS011;8594;52.052;8.354;2023-02-17T03:10:04;58.83;;;30.93;;
16954;SDS011;8594;52.052;8.354;2023-02-17T03:12:33;57.43;;;31.67;;
16954;SDS011;8594;52.052;8.354;2023-02-17T03:15:04;54.27;;;30.70;;
16954;SDS011;8594;52.052;8.354;2023-02-17T03:17:39;53.97;;;30.90;;
16954;SDS011;8594;52.052;8.354;2023-02-17T03:20:08;56.90;;;31.43;;
16954;SDS011;8594;52.052;8.354;2023-02-17T03:22:38;56.30;;;32.17;;
16954;SDS011;8594;52.052;8.354;2023-02-17T03:25:09;53.73;;;30.70;;
16954;SDS011;8594;52.052;8.354;2023-02-17T03:27:37;55.07;;;31.33;;
16954;SDS011;8594;52.052;8.354;2023-02-17T03:30:04;54.43;;;30.40;;
16954;SDS011;8594;52.052;8.354;2023-02-17T03:32:33;61.20;;;30.80;;
16954;SDS011;8594;52.052;8.354;2023-02-17T03:35:00;52.33;;;29.27;;
16954;SDS011;8594;52.052;8.354;2023-02-17T03:37:28;52.03;;;29.23;;
16954;SDS011;8594;52.052;8.354;2023-02-17T03:39:55;55.73;;;30.03;;
16954;SDS011;8594;52.052;8.354;2023-02-17T03:42:22;53.67;;;29.37;;
16954;SDS011;8594;52.052;8.354;2023-02-17T03:44:48;55.33;;;30.20;;
16954;SDS011;8594;52.052;8.354;2023-02-17T03:47:16;52.33;;;30.77;;
16954;SDS011;8594;52.052;8.354;2023-02-17T03:49:42;48.80;;;29.23;;
16954;SDS011;8594;52.052;8.354;2023-02-17T03:52:09;55.83;;;29.37;;
16954;SDS011;8594;52.052;8.354;2023-02-17T03:54:37;55.13;;;31.80;;
16954;SDS011;8594;52.052;8.354;2023-02-17T03:57:04;55.73;;;30.57;;
16954;SDS011;8594;52.052;8.354;2023-02-17T03:59:31;53.20;;;30.70;;
16954;SDS011;8594;52.052;8.354;2023-02-17T04:01:58;55.93;;;30.27;;
16954;SDS011;8594;52.052;8.354;2023-02-17T04:04:25;53.17;;;31.03;;
16954;SDS011;8594;52.052;8.354;2023-02-17T04:06:52;55.83;;;29.20;;
16954;SDS011;8594;52.052;8.354;2023-02-17T04:09:18;51.20;;;30.50;;
16954;SDS011;8594;52.052;8.354;2023-02-17T04:11:47;57.57;;;30.80;;
16954;SDS011;8594;52.052;8.354;2023-02-17T04:14:13;53.33;;;31.37;;
16954;SDS011;8594;52.052;8.354;2023-02-17T04:16:40;52.87;;;30.10;;
16954;SDS011;8594;52.052;8.354;2023-02-17T04:19:07;52.73;;;29.70;;
16954;SDS011;8594;52.052;8.354;2023-02-17T04:21:34;53.20;;;30.33;;
16954;SDS011;8594;52.052;8.354;2023-02-17T04:24:01;58.00;;;30.17;;
16954;SDS011;8594;52.052;8.354;2023-02-17T04:26:29;57.63;;;29.90;;
16954;SDS011;8594;52.052;8.354;2023-02-17T04:28:57;55.63;;;30.87;;
16954;SDS011;8594;52.052;8.354;2023-02-17T04:31:24;52.70;;;30.43;;
16954;SDS011;8594;52.052;8.354;2023-02-17T04:33:52;52.47;;;30.27;;
16954;SDS011;8594;52.052;8.354;2023-02-17T04:36:19;59.87;;;30.90;;
16954;SDS011;8594;52.052;8.354;2023-02-17T04:38:46;55.60;;;32.23;;
16954;SDS011;8594;52.052;8.354;2023-02-17T04:41:13;51.20;;;29.33;;
16954;SDS011;8594;52.052;8.354;2023-02-17T04:43:40;59.67;;;32.13;;
16954;SDS011;8594;52.052;8.354;2023-02-17T04:46:08;51.27;;;30.40;;
16954;SDS011;8594;52.052;8.354;2023-02-17T04:48:35;54.50;;;31.43;;
16954;SDS011;8594;52.052;8.354;2023-02-17T04:51:03;54.47;;;31.50;;
16954;SDS011;8594;52.052;8.354;2023-02-17T04:53:30;60.47;;;33.47;;
16954;SDS011;8594;52.052;8.354;2023-02-17T04:55:57;59.40;;;32.03;;
16954;SDS011;8594;52.052;8.354;2023-02-17T04:58:24;59.93;;;31.93;;
16954;SDS011;8594;52.052;8.354;2023-02-17T05:00:51;59.90;;;33.60;;
16954;SDS011;8594;52.052;8.354;2023-02-17T05:03:19;57.57;;;31.60;;
16954;SDS011;8594;52.052;8.354;2023-02-17T05:05:46;57.90;;;32.70;;
16954;SDS011;8594;52.052;8.354;2023-02-17T05:08:15;62.10;;;32.37;;
16954;SDS011;8594;52.052;8.354;2023-02-17T05:10:41;59.80;;;33.03;;
16954;SDS011;8594;52.052;8.354;2023-02-17T05:13:09;59.20;;;32.53;;
16954;SDS011;8594;52.052;8.354;2023-02-17T05:15:36;61.37;;;33.03;;
16954;SDS011;8594;52.052;8.354;2023-02-17T05:18:03;61.60;;;32.23;;
16954;SDS011;8594;52.052;8.354;2023-02-17T05:20:32;55.50;;;31.30;;
16954;SDS011;8594;52.052;8.354;2023-02-17T05:22:59;53.47;;;30.73;;
16954;SDS011;8594;52.052;8.354;2023-02-17T05:25:26;49.17;;;28.77;;
16954;SDS011;8594;52.052;8.354;2023-02-17T05:27:52;49.77;;;27.97;;
16954;SDS011;8594;52.052;8.354;2023-02-17T05:30:19;53.23;;;29.87;;
16954;SDS011;8594;52.052;8.354;2023-02-17T05:32:46;49.17;;;27.67;;
16954;SDS011;8594;52.052;8.354;2023-02-17T05:35:13;48.63;;;28.57;;
16954;SDS011;8594;52.052;8.354;2023-02-17T05:37:42;45.67;;;26.90;;
16954;SDS011;8594;52.052;8.354;2023-02-17T05:40:09;49.70;;;28.50;;
16954;SDS011;8594;52.052;8.354;2023-02-17T05:42:36;52.43;;;29.23;;
16954;SDS011;8594;52.052;8.354;2023-02-17T05:45:05;51.50;;;28.80;;
16954;SDS011;8594;52.052;8.354;2023-02-17T05:47:38;48.80;;;26.67;;
16954;SDS011;8594;52.052;8.354;2023-02-17T05:50:05;45.77;;;25.83;;
16954;SDS011;8594;52.052;8.354;2023-02-17T05:52:33;42.77;;;25.20;;
16954;SDS011;8594;52.052;8.354;2023-02-17T05:55:01;41.53;;;23.77;;
16954;SDS011;8594;52.052;8.354;2023-02-17T05:57:29;42.43;;;24.97;;
16954;SDS011;8594;52.052;8.354;2023-02-17T05:59:56;39.43;;;23.47;;
16954;SDS011;8594;52.052;8.354;2023-02-17T06:02:23;39.40;;;23.37;;
16954;SDS011;8594;52.052;8.354;2023-02-17T06:04:50;37.13;;;20.67;;
16954;SDS011;8594;52.052;8.354;2023-02-17T06:07:17;37.53;;;21.27;;
16954;SDS011;8594;52.052;8.354;2023-02-17T06:09:44;34.47;;;19.87;;
16954;SDS011;8594;52.052;8.354;2023-02-17T06:12:12;32.43;;;19.07;;
16954;SDS011;8594;52.052;8.354;2023-02-17T06:14:39;34.50;;;20.60;;
16954;SDS011;8594;52.052;8.354;2023-02-17T06:17:05;35.63;;;21.33;;
16954;SDS011;8594;52.052;8.354;2023-02-17T06:19:32;37.70;;;21.93;;
16954;SDS011;8594;52.052;8.354;2023-02-17T06:21:59;38.77;;;22.60;;
16954;SDS011;8594;52.052;8.354;2023-02-17T06:24:26;43.00;;;24.20;;
16954;SDS011;8594;52.052;8.354;2023-02-17T06:26:53;40.27;;;23.83;;
16954;SDS011;8594;52.052;8.354;2023-02-17T06:29:21;38.47;;;22.93;;
16954;SDS011;8594;52.052;8.354;2023-02-17T06:31:48;39.07;;;23.07;;
16954;SDS011;8594;52.052;8.354;2023-02-17T06:34:15;36.23;;;22.43;;
16954;SDS011;8594;52.052;8.354;2023-02-17T06:36:41;37.97;;;22.17;;
16954;SDS011;8594;52.052;8.354;2023-02-17T06:39:08;36.30;;;21.57;;
16954;SDS011;8594;52.052;8.354;2023-02-17T06:41:35;39.50;;;21.27;;
16954;SDS011;8594;52.052;8.354;2023-02-17T06:44:02;40.30;;;21.20;;
16954;SDS011;8594;52.052;8.354;2023-02-17T06:46:31;39.80;;;22.33;;
16954;SDS011;8594;52.052;8.354;2023-02-17T06:48:57;37.23;;;22.30;;
16954;SDS011;8594;52.052;8.354;2023-02-17T06:51:25;37.80;;;21.90;;
16954;SDS011;8594;52.052;8.354;2023-02-17T06:53:52;38.43;;;23.10;;
16954;SDS011;8594;52.052;8.354;2023-02-17T06:56:20;38.47;;;23.13;;
16954;SDS011;8594;52.052;8.354;2023-02-17T06:58:47;37.17;;;23.37;;
16954;SDS011;8594;52.052;8.354;2023-02-17T07:01:15;34.37;;;22.03;;
16954;SDS011;8594;52.052;8.354;2023-02-17T07:03:45;38.70;;;22.27;;
16954;SDS011;8594;52.052;8.354;2023-02-17T07:06:12;41.30;;;22.20;;
16954;SDS011;8594;52.052;8.354;2023-02-17T07:08:39;37.17;;;22.13;;
16954;SDS011;8594;52.052;8.354;2023-02-17T07:11:07;37.77;;;22.43;;
16954;SDS011;8594;52.052;8.354;2023-02-17T07:13:39;37.13;;;21.23;;
16954;SDS011;8594;52.052;8.354;2023-02-17T07:16:07;34.77;;;20.97;;
16954;SDS011;8594;52.052;8.354;2023-02-17T07:18:35;35.93;;;21.53;;
16954;SDS011;8594;52.052;8.354;2023-02-17T07:21:04;34.33;;;21.17;;
16954;SDS011;8594;52.052;8.354;2023-02-17T07:23:32;34.43;;;21.43;;
16954;SDS011;8594;52.052;8.354;2023-02-17T07:26:00;34.27;;;20.43;;
16954;SDS011;8594;52.052;8.354;2023-02-17T07:28:28;36.73;;;21.23;;
16954;SDS011;8594;52.052;8.354;2023-02-17T07:30:55;34.53;;;21.00;;
16954;SDS011;8594;52.052;8.354;2023-02-17T07:33:22;37.33;;;20.93;;
16954;SDS011;8594;52.052;8.354;2023-02-17T07:35:49;34.63;;;21.43;;
16954;SDS011;8594;52.052;8.354;2023-02-17T07:38:17;35.47;;;20.90;;
16954;SDS011;8594;52.052;8.354;2023-02-17T07:40:44;35.50;;;21.90;;
16954;SDS011;8594;52.052;8.354;2023-02-17T07:43:10;37.73;;;22.80;;
16954;SDS011;8594;52.052;8.354;2023-02-17T07:45:37;37.87;;;21.87;;
16954;SDS011;8594;52.052;8.354;2023-02-17T07:48:06;40.17;;;23.07;;
16954;SDS011;8594;52.052;8.354;2023-02-17T07:50:33;40.67;;;23.37;;
16954;SDS011;8594;52.052;8.354;2023-02-17T07:53:00;40.50;;;22.73;;
16954;SDS011;8594;52.052;8.354;2023-02-17T07:55:29;40.43;;;21.97;;
16954;SDS011;8594;52.052;8.354;2023-02-17T07:57:55;35.27;;;21.50;;
16954;SDS011;8594;52.052;8.354;2023-02-17T08:00:23;37.40;;;21.50;;
16954;SDS011;8594;52.052;8.354;2023-02-17T08:02:50;34.50;;;20.90;;
16954;SDS011;8594;52.052;8.354;2023-02-17T08:05:17;38.93;;;19.60;;
16954;SDS011;8594;52.052;8.354;2023-02-17T08:07:44;35.60;;;19.90;;
16954;SDS011;8594;52.052;8.354;2023-02-17T08:10:11;33.63;;;19.67;;
16954;SDS011;8594;52.052;8.354;2023-02-17T08:12:57;35.60;;;20.67;;
16954;SDS011;8594;52.052;8.354;2023-02-17T08:15:42;36.30;;;20.20;;
16954;SDS011;8594;52.052;8.354;2023-02-17T08:18:09;38.23;;;21.70;;
16954;SDS011;8594;52.052;8.354;2023-02-17T08:20:36;38.80;;;22.37;;
16954;SDS011;8594;52.052;8.354;2023-02-17T08:23:03;38.60;;;21.33;;
16954;SDS011;8594;52.052;8.354;2023-02-17T08:25:30;36.00;;;21.60;;
16954;SDS011;8594;52.052;8.354;2023-02-17T08:28:00;41.17;;;22.60;;
16954;SDS011;8594;52.052;8.354;2023-02-17T08:30:29;40.70;;;22.53;;
16954;SDS011;8594;52.052;8.354;2023-02-17T08:32:59;42.13;;;23.90;;
16954;SDS011;8594;52.052;8.354;2023-02-17T08:35:26;42.57;;;24.93;;
16954;SDS011;8594;52.052;8.354;2023-02-17T08:37:53;42.37;;;23.37;;
16954;SDS011;8594;52.052;8.354;2023-02-17T08:40:20;42.80;;;24.30;;
16954;SDS011;8594;52.052;8.354;2023-02-17T08:42:48;40.43;;;24.13;;
16954;SDS011;8594;52.052;8.354;2023-02-17T08:45:16;41.97;;;23.67;;
16954;SDS011;8594;52.052;8.354;2023-02-17T08:47:43;43.07;;;23.80;;
16954;SDS011;8594;52.052;8.354;2023-02-17T08:50:11;41.27;;;24.63;;
16954;SDS011;8594;52.052;8.354;2023-02-17T08:52:41;42.37;;;25.20;;
16954;SDS011;8594;52.052;8.354;2023-02-17T08:55:07;44.87;;;25.00;;
16954;SDS011;8594;52.052;8.354;2023-02-17T08:57:35;43.53;;;24.20;;
16954;SDS011;8594;52.052;8.354;2023-02-17T09:00:03;43.63;;;24.77;;
16954;SDS011;8594;52.052;8.354;2023-02-17T09:02:34;43.67;;;24.23;;
16954;SDS011;8594;52.052;8.354;2023-02-17T09:05:02;45.93;;;25.40;;
16954;SDS011;8594;52.052;8.354;2023-02-17T09:07:30;43.50;;;24.10;;
16954;SDS011;8594;52.052;8.354;2023-02-17T09:09:57;48.27;;;25.50;;
16954;SDS011;8594;52.052;8.354;2023-02-17T09:12:23;47.63;;;25.37;;
16954;SDS011;8594;52.052;8.354;2023-02-17T09:14:50;47.50;;;26.60;;
16954;SDS011;8594;52.052;8.354;2023-02-17T09:17:17;51.00;;;26.63;;
16954;SDS011;8594;52.052;8.354;2023-02-17T09:19:45;50.27;;;27.97;;
16954;SDS011;8594;52.052;8.354;2023-02-17T09:22:13;51.77;;;29.07;;
16954;SDS011;8594;52.052;8.354;2023-02-17T09:24:41;53.83;;;29.50;;
16954;SDS011;8594;52.052;8.354;2023-02-17T09:27:08;53.17;;;27.97;;
16954;SDS011;8594;52.052;8.354;2023-02-17T09:29:35;51.63;;;29.07;;
16954;SDS011;8594;52.052;8.354;2023-02-17T09:32:05;55.33;;;29.40;;
16954;SDS011;8594;52.052;8.354;2023-02-17T09:34:33;54.83;;;27.87;;
16954;SDS011;8594;52.052;8.354;2023-02-17T09:37:02;54.50;;;29.43;;
16954;SDS011;8594;52.052;8.354;2023-02-17T09:39:29;53.53;;;28.67;;
16954;SDS011;8594;52.052;8.354;2023-02-17T09:41:56;57.33;;;30.30;;
16954;SDS011;8594;52.052;8.354;2023-02-17T09:44:23;54.10;;;28.00;;
16954;SDS011;8594;52.052;8.354;2023-02-17T09:46:58;53.03;;;28.03;;
16954;SDS011;8594;52.052;8.354;2023-02-17T09:49:31;51.47;;;30.67;;
16954;SDS011;8594;52.052;8.354;2023-02-17T09:52:09;53.03;;;28.27;;
16954;SDS011;8594;52.052;8.354;2023-02-17T09:54:43;54.93;;;29.43;;
16954;SDS011;8594;52.052;8.354;2023-02-17T09:57:24;56.27;;;30.27;;
16954;SDS011;8594;52.052;8.354;2023-02-17T09:59:54;55.10;;;28.90;;
16954;SDS011;8594;52.052;8.354;2023-02-17T10:02:28;50.97;;;28.40;;
16954;SDS011;8594;52.052;8.354;2023-02-17T10:05:05;48.53;;;27.63;;
16954;SDS011;8594;52.052;8.354;2023-02-17T10:07:39;51.37;;;29.03;;
16954;SDS011;8594;52.052;8.354;2023-02-17T10:10:13;43.30;;;26.33;;
16954;SDS011;8594;52.052;8.354;2023-02-17T10:12:47;55.47;;;27.47;;
16954;SDS011;8594;52.052;8.354;2023-02-17T10:15:20;49.03;;;27.13;;
16954;SDS011;8594;52.052;8.354;2023-02-17T10:17:52;43.50;;;25.10;;
16954;SDS011;8594;52.052;8.354;2023-02-17T10:20:30;44.83;;;25.87;;
16954;SDS011;8594;52.052;8.354;2023-02-17T10:23:03;45.27;;;25.73;;
16954;SDS011;8594;52.052;8.354;2023-02-17T10:25:42;43.83;;;25.17;;
16954;SDS011;8594;52.052;8.354;2023-02-17T10:28:48;45.77;;;26.07;;
16954;SDS011;8594;52.052;8.354;2023-02-17T10:31:20;43.40;;;24.23;;
16954;SDS011;8594;52.052;8.354;2023-02-17T10:34:01;41.07;;;24.37;;
16954;SDS011;8594;52.052;8.354;2023-02-17T10:36:37;36.00;;;22.63;;
16954;SDS011;8594;52.052;8.354;2023-02-17T10:39:21;36.73;;;21.53;;
16954;SDS011;8594;52.052;8.354;2023-02-17T10:42:13;34.00;;;19.30;;
16954;SDS011;8594;52.052;8.354;2023-02-17T10:44:46;29.67;;;18.37;;
16954;SDS011;8594;52.052;8.354;2023-02-17T10:47:15;27.63;;;17.10;;
16954;SDS011;8594;52.052;8.354;2023-02-17T10:49:44;31.50;;;18.37;;
16954;SDS011;8594;52.052;8.354;2023-02-17T10:52:16;28.77;;;17.17;;
16954;SDS011;8594;52.052;8.354;2023-02-17T10:54:49;27.83;;;17.10;;
16954;SDS011;8594;52.052;8.354;2023-02-17T10:57:24;24.63;;;15.63;;
16954;SDS011;8594;52.052;8.354;2023-02-17T11:00:00;19.00;;;13.40;;
16954;SDS011;8594;52.052;8.354;2023-02-17T11:02:32;21.27;;;14.20;;
16954;SDS011;8594;52.052;8.354;2023-02-17T11:05:06;22.10;;;14.47;;
16954;SDS011;8594;52.052;8.354;2023-02-17T11:07:44;20.23;;;12.70;;
16954;SDS011;8594;52.052;8.354;2023-02-17T11:10:20;19.07;;;11.57;;
16954;SDS011;8594;52.052;8.354;2023-02-17T11:12:50;16.23;;;10.47;;
16954;SDS011;8594;52.052;8.354;2023-02-17T11:15:21;16.50;;;10.43;;
16954;SDS011;8594;52.052;8.354;2023-02-17T11:17:53;15.97;;;9.60;;
16954;SDS011;8594;52.052;8.354;2023-02-17T11:20:28;16.80;;;9.87;;
16954;SDS011;8594;52.052;8.354;2023-02-17T11:23:00;15.27;;;9.10;;
16954;SDS011;8594;52.052;8.354;2023-02-17T11:25:34;12.73;;;8.60;;
16954;SDS011;8594;52.052;8.354;2023-02-17T11:28:03;13.00;;;8.30;;
16954;SDS011;8594;52.052;8.354;2023-02-17T11:30:37;14.67;;;8.30;;
16954;SDS011;8594;52.052;8.354;2023-02-17T11:33:14;12.43;;;7.83;;
16954;SDS011;8594;52.052;8.354;2023-02-17T11:35:48;14.33;;;7.33;;
16954;SDS011;8594;52.052;8.354;2023-02-17T11:38:20;15.07;;;7.93;;
16954;SDS011;8594;52.052;8.354;2023-02-17T11:40:52;11.53;;;7.00;;
16954;SDS011;8594;52.052;8.354;2023-02-17T11:43:22;12.43;;;7.87;;
16954;SDS011;8594;52.052;8.354;2023-02-17T11:45:53;11.63;;;7.70;;
16954;SDS011;8594;52.052;8.354;2023-02-17T11:52:07;12.23;;;7.63;;
16954;SDS011;8594;52.052;8.354;2023-02-17T11:54:47;12.00;;;7.50;;
16954;SDS011;8594;52.052;8.354;2023-02-17T11:57:36;11.30;;;7.80;;
16954;SDS011;8594;52.052;8.354;2023-02-17T12:00:12;12.93;;;7.73;;
16954;SDS011;8594;52.052;8.354;2023-02-17T12:03:03;12.00;;;8.20;;
16954;SDS011;8594;52.052;8.354;2023-02-17T12:05:57;15.13;;;8.30;;
16954;SDS011;8594;52.052;8.354;2023-02-17T12:08:39;52.07;;;11.17;;
16954;SDS011;8594;52.052;8.354;2023-02-17T12:11:26;15.53;;;8.10;;
16954;SDS011;8594;52.052;8.354;2023-02-17T12:14:06;13.27;;;8.33;;
16954;SDS011;8594;52.052;8.354;2023-02-17T12:16:58;12.40;;;7.67;;
16954;SDS011;8594;52.052;8.354;2023-02-17T12:19:35;13.83;;;8.07;;
16954;SDS011;8594;52.052;8.354;2023-02-17T12:22:12;14.80;;;7.67;;
16954;SDS011;8594;52.052;8.354;2023-02-17T12:27:50;13.50;;;6.90;;
16954;SDS011;8594;52.052;8.354;2023-02-17T12:30:34;10.43;;;6.80;;
16954;SDS011;8594;52.052;8.354;2023-02-17T12:33:21;13.43;;;6.83;;
16954;SDS011;8594;52.052;8.354;2023-02-17T12:36:05;16.97;;;7.33;;
16954;SDS011;8594;52.052;8.354;2023-02-17T12:38:37;17.67;;;7.53;;
16954;SDS011;8594;52.052;8.354;2023-02-17T12:41:10;10.83;;;7.17;;
16954;SDS011;8594;52.052;8.354;2023-02-17T12:43:44;12.80;;;7.47;;
16954;SDS011;8594;52.052;8.354;2023-02-17T12:46:18;9.70;;;6.90;;
16954;SDS011;8594;52.052;8.354;2023-02-17T12:48:52;10.90;;;7.40;;
16954;SDS011;8594;52.052;8.354;2023-02-17T12:51:23;12.70;;;6.93;;
16954;SDS011;8594;52.052;8.354;2023-02-17T12:53:54;14.90;;;7.50;;
16954;SDS011;8594;52.052;8.354;2023-02-17T12:56:32;11.67;;;6.33;;
16954;SDS011;8594;52.052;8.354;2023-02-17T12:59:20;11.70;;;6.80;;
16954;SDS011;8594;52.052;8.354;2023-02-17T13:01:59;13.10;;;6.77;;
16954;SDS011;8594;52.052;8.354;2023-02-17T13:04:30;12.13;;;7.13;;
16954;SDS011;8594;52.052;8.354;2023-02-17T13:07:05;15.00;;;6.97;;
16954;SDS011;8594;52.052;8.354;2023-02-17T13:10:15;16.13;;;7.47;;
16954;SDS011;8594;52.052;8.354;2023-02-17T13:13:01;12.83;;;7.20;;
16954;SDS011;8594;52.052;8.354;2023-02-17T13:15:33;12.20;;;7.00;;
16954;SDS011;8594;52.052;8.354;2023-02-17T13:18:05;12.57;;;7.13;;
16954;SDS011;8594;52.052;8.354;2023-02-17T13:20:39;16.63;;;7.70;;
16954;SDS011;8594;52.052;8.354;2023-02-17T13:23:27;14.43;;;7.60;;
16954;SDS011;8594;52.052;8.354;2023-02-17T13:26:07;14.90;;;7.73;;
16954;SDS011;8594;52.052;8.354;2023-02-17T13:29:07;12.23;;;7.90;;
16954;SDS011;8594;52.052;8.354;2023-02-17T13:31:58;11.37;;;7.90;;
16954;SDS011;8594;52.052;8.354;2023-02-17T13:34:30;14.30;;;8.50;;
16954;SDS011;8594;52.052;8.354;2023-02-17T13:37:01;13.70;;;8.93;;
16954;SDS011;8594;52.052;8.354;2023-02-17T13:39:43;16.80;;;9.37;;
16954;SDS011;8594;52.052;8.354;2023-02-17T13:45:20;15.73;;;8.83;;
16954;SDS011;8594;52.052;8.354;2023-02-17T13:47:53;16.07;;;10.10;;
16954;SDS011;8594;52.052;8.354;2023-02-17T13:50:32;17.47;;;9.73;;
16954;SDS011;8594;52.052;8.354;2023-02-17T13:53:02;20.87;;;9.83;;
16954;SDS011;8594;52.052;8.354;2023-02-17T13:55:46;16.23;;;10.30;;
16954;SDS011;8594;52.052;8.354;2023-02-17T13:58:13;17.73;;;9.60;;
16954;SDS011;8594;52.052;8.354;2023-02-17T14:00:47;18.17;;;10.07;;
16954;SDS011;8594;52.052;8.354;2023-02-17T14:03:16;15.40;;;10.40;;
16954;SDS011;8594;52.052;8.354;2023-02-17T14:05:49;18.70;;;10.23;;
16954;SDS011;8594;52.052;8.354;2023-02-17T14:08:19;16.67;;;9.90;;
16954;SDS011;8594;52.052;8.354;2023-02-17T14:10:54;19.00;;;11.43;;
16954;SDS011;8594;52.052;8.354;2023-02-17T14:13:22;19.60;;;10.83;;
16954;SDS011;8594;52.052;8.354;2023-02-17T14:15:52;17.07;;;10.63;;
16954;SDS011;8594;52.052;8.354;2023-02-17T14:18:28;15.60;;;10.23;;
16954;SDS011;8594;52.052;8.354;2023-02-17T14:21:05;19.47;;;11.30;;
16954;SDS011;8594;52.052;8.354;2023-02-17T14:23:41;17.37;;;10.23;;
16954;SDS011;8594;52.052;8.354;2023-02-17T14:26:24;16.47;;;10.37;;
16954;SDS011;8594;52.052;8.354;2023-02-17T14:28:55;14.83;;;9.53;;
16954;SDS011;8594;52.052;8.354;2023-02-17T14:31:25;17.40;;;10.03;;
16954;SDS011;8594;52.052;8.354;2023-02-17T14:33:57;17.83;;;9.73;;
16954;SDS011;8594;52.052;8.354;2023-02-17T14:36:31;16.10;;;9.77;;
16954;SDS011;8594;52.052;8.354;2023-02-17T14:39:02;15.17;;;9.07;;
16954;SDS011;8594;52.052;8.354;2023-02-17T14:41:31;14.50;;;8.80;;
16954;SDS011;8594;52.052;8.354;2023-02-17T14:43:59;15.50;;;9.00;;
16954;SDS011;8594;52.052;8.354;2023-02-17T14:46:26;15.10;;;8.77;;
16954;SDS011;8594;52.052;8.354;2023-02-17T14:48:53;12.90;;;8.40;;
16954;SDS011;8594;52.052;8.354;2023-02-17T14:51:21;17.53;;;9.53;;
16954;SDS011;8594;52.052;8.354;2023-02-17T14:53:52;14.03;;;8.20;;
16954;SDS011;8594;52.052;8.354;2023-02-17T14:56:20;14.50;;;7.73;;
16954;SDS011;8594;52.052;8.354;2023-02-17T14:58:52;14.10;;;8.73;;
16954;SDS011;8594;52.052;8.354;2023-02-17T15:01:20;13.13;;;8.80;;
16954;SDS011;8594;52.052;8.354;2023-02-17T15:03:49;15.37;;;9.37;;
16954;SDS011;8594;52.052;8.354;2023-02-17T15:06:16;14.50;;;8.63;;
16954;SDS011;8594;52.052;8.354;2023-02-17T15:08:46;16.30;;;8.63;;
16954;SDS011;8594;52.052;8.354;2023-02-17T15:11:16;13.07;;;8.47;;
16954;SDS011;8594;52.052;8.354;2023-02-17T15:13:56;15.40;;;9.13;;
16954;SDS011;8594;52.052;8.354;2023-02-17T15:16:23;14.67;;;9.10;;
16954;SDS011;8594;52.052;8.354;2023-02-17T15:18:50;15.63;;;8.20;;